Impacts TAF Board INFO
FOR SITUATIONAL AWARENESS. NOT TO BE USED FOR FLIGHT PLANNING PURPOSES.
IDs:

KDEN - Denver Intl, CO, US

Issued at 0303 UTC 20 Aug 2018
Updated at 0332 UTC 20 Aug 2018
Potential Impact None Slight Moderate High
Time<<20/16Z 20/17Z 20/18Z 20/19Z 20/20Z 20/21Z 20/22Z 20/23Z 21/00Z 21/01Z 21/02Z 21/03Z 21/04Z>>
Type PRVL PRVL PRVL PRVL PRVL PRVL PRVL PRVL PRVL PRVL PRVL PRVL PRVL
VIS >6 >6 >6 >6 >6 >6 >6 >6 >6 >6 >6 >6 >6
CIG -- -- -- -- -- -- -- 120 120 120 120 120 120
Cover FEW FEW FEW FEW FEW FEW FEW BKN BKN BKN BKN BKN BKN
FltCat VFR VFR VFR VFR VFR VFR VFR VFR VFR VFR VFR VFR VFR
WX -- -- -- -- -- -- -- -- -- -- -- -- --
WDir 100 100 100 100 100 100 100 120 120 120 120 120 120
WSpd 9 9 9 9 9 9 9 12 12 12 12 12 12
WGst -- -- -- -- -- -- -- -- -- -- -- -- --

Raw TAF
KDEN 200303Z 2003/2106 01012KT P6SM SCT070 SCT150
  FM200400 33007KT P6SM FEW070 SCT110
  FM200800 22007KT P6SM FEW070
  TEMPO 2011/2015 5SM HZ
  FM201600 10009KT P6SM FEW100
  FM202300 12012KT P6SM SCT080 BKN120


METAR Board
Radar Display
Forecast Discussion

FOR SITUATIONAL AWARENESS. NOT TO BE USED FOR FLIGHT PLANNING PURPOSES.